Time;durP1;ratioP1;P1;durP2;ratioP2;P2;SDS_P1;SDS_P2;PMS_P1;PMS_P2;Temp;Humidity;BMP_temperature;BMP_pressure;BME280_temperature;BME280_humidity;BME280_pressure;Samples;Min_cycle;Max_cycle;Signal;HPM_P1;HPM_P2
2023/03/09 00:01:40;;;;;;;;;6.80;6.00;;;;;12.16;34.04;98314.88;5029911;28;8879;-74
2023/03/09 00:04:12;;;;;;;;;7.40;6.40;;;;;12.21;34.19;98309.41;5045032;28;9786;-75
2023/03/09 00:06:42;;;;;;;;;5.60;5.60;;;;;12.21;34.40;98306.78;5060493;28;8841;-76
2023/03/09 00:09:12;;;;;;;;;10.20;7.20;;;;;12.28;34.41;98301.13;5031872;28;8829;-75
2023/03/09 00:11:43;;;;;;;;;5.80;5.80;;;;;12.07;34.46;98302.13;5049753;28;8840;-75
2023/03/09 00:14:12;;;;;;;;;6.00;5.80;;;;;12.07;34.46;98303.00;5065049;28;8876;-74
2023/03/09 00:16:41;;;;;;;;;7.00;7.00;;;;;12.17;34.64;98298.16;5030022;28;9029;-73
2023/03/09 00:19:10;;;;;;;;;9.80;8.80;;;;;12.20;34.45;98295.38;5050007;28;8845;-73
2023/03/09 00:21:40;;;;;;;;;10.00;8.60;;;;;12.11;34.42;98291.41;5049781;28;9694;-76
2023/03/09 00:24:11;;;;;;;;;9.00;7.40;;;;;12.11;34.45;98286.13;5049695;28;8883;-74
2023/03/09 00:26:44;;;;;;;;;4.20;4.20;;;;;12.09;34.76;98287.97;5049598;28;8845;-73
2023/03/09 00:29:13;;;;;;;;;5.60;5.40;;;;;12.09;34.68;98284.50;5048162;28;8869;-73
2023/03/09 00:31:43;;;;;;;;;8.80;7.40;;;;;12.17;34.64;98276.25;5028585;28;8899;-74
2023/03/09 00:34:13;;;;;;;;;10.40;7.60;;;;;12.19;34.49;98279.66;5028155;28;9013;-75
2023/03/09 00:36:43;;;;;;;;;5.00;5.00;;;;;12.26;34.34;98279.28;5045931;28;9638;-74
2023/03/09 00:39:13;;;;;;;;;3.80;3.60;;;;;12.21;34.12;98278.63;5064454;28;9042;-74
2023/03/09 00:41:44;;;;;;;;;8.60;6.80;;;;;12.06;34.64;98277.59;5049139;28;8860;-73
2023/03/09 00:44:14;;;;;;;;;8.40;6.20;;;;;12.01;34.55;98271.66;5000590;28;9649;-74
2023/03/09 00:46:43;;;;;;;;;5.60;5.00;;;;;12.13;34.82;98272.88;5033369;28;8833;-74
2023/03/09 00:49:14;;;;;;;;;5.60;4.80;;;;;12.14;34.73;98254.38;5060343;28;8856;-73
2023/03/09 00:51:43;;;;;;;;;5.20;5.20;;;;;12.07;34.56;98249.44;5027863;28;8859;-75
2023/03/09 00:54:14;;;;;;;;;5.60;5.60;;;;;12.03;34.95;98248.78;5034961;28;8954;-75
2023/03/09 00:56:44;;;;;;;;;4.60;3.60;;;;;11.89;35.25;98248.56;5064137;28;8876;-74
2023/03/09 00:59:13;;;;;;;;;6.00;5.40;;;;;12.01;35.10;98255.88;5049022;28;8837;-73
2023/03/09 01:01:41;;;;;;;;;5.80;5.80;;;;;11.91;35.04;98244.91;5080489;28;8873;-75
2023/03/09 01:04:11;;;;;;;;;6.60;6.60;;;;;12.23;34.43;98239.88;5059875;28;8859;-73
2023/03/09 01:06:40;;;;;;;;;6.40;6.00;;;;;12.10;34.97;98244.91;5027334;28;9766;-75
2023/03/09 01:09:09;;;;;;;;;6.20;6.00;;;;;12.15;34.74;98239.44;5060306;28;8879;-74
2023/03/09 01:11:39;;;;;;;;;6.00;6.00;;;;;12.15;34.67;98234.16;5043962;28;8907;-75
2023/03/09 01:14:09;;;;;;;;;8.80;7.20;;;;;12.23;34.79;98232.00;5047444;28;8997;-75
2023/03/09 01:16:39;;;;;;;;;8.00;6.00;;;;;12.32;34.43;98225.44;5064267;28;8853;-75
2023/03/09 01:19:08;;;;;;;;;7.60;6.80;;;;;11.98;35.32;98229.69;5080816;28;8872;-74
2023/03/09 01:21:37;;;;;;;;;9.20;8.00;;;;;12.22;34.52;98224.16;5059013;28;8894;-75
2023/03/09 01:24:06;;;;;;;;;4.80;4.60;;;;;12.17;34.96;98220.91;5060137;28;8863;-75
2023/03/09 01:26:35;;;;;;;;;2.60;2.60;;;;;12.38;34.58;98205.81;5060186;28;8855;-74
2023/03/09 01:29:04;;;;;;;;;8.60;6.00;;;;;12.45;34.77;98204.59;5042545;28;8848;-74
2023/03/09 01:31:35;;;;;;;;;4.00;3.20;;;;;12.12;35.04;98195.63;5059955;28;8874;-74
2023/03/09 01:34:03;;;;;;;;;5.00;5.00;;;;;12.30;34.85;98193.03;5063108;28;8873;-73
2023/03/09 01:36:32;;;;;;;;;4.00;4.00;;;;;12.34;34.54;98190.16;5063759;28;8845;-73
2023/03/09 01:39:01;;;;;;;;;5.20;5.20;;;;;12.53;34.72;98189.25;5008260;28;8929;-75
2023/03/09 01:41:30;;;;;;;;;5.00;4.00;;;;;12.28;34.90;98179.94;5043244;28;8879;-74
2023/03/09 01:43:59;;;;;;;;;4.60;3.60;;;;;12.38;34.98;98177.69;5010270;28;8937;-74
2023/03/09 01:46:55;;;;;;;;;3.20;3.00;;;;;12.17;35.05;98176.13;5031564;28;8839;-73
2023/03/09 01:49:31;;;;;;;;;4.00;3.00;;;;;12.30;34.92;98185.13;5059918;28;8864;-74
2023/03/09 01:52:06;;;;;;;;;3.00;3.00;;;;;12.12;35.15;98178.97;5043355;28;9609;-75
2023/03/09 01:54:41;;;;;;;;;4.40;4.00;;;;;12.37;34.99;98175.97;5059727;28;9621;-74
2023/03/09 01:57:16;;;;;;;;;4.00;4.00;;;;;12.53;34.42;98176.91;5027205;28;8866;-75
2023/03/09 01:59:46;;;;;;;;;4.20;3.80;;;;;12.51;35.02;98173.50;5044732;28;8971;-76
2023/03/09 02:02:17;;;;;;;;;5.00;4.60;;;;;12.62;34.84;98166.84;5060897;28;8857;-74
2023/03/09 02:04:53;;;;;;;;;5.00;4.00;;;;;12.90;34.17;98160.97;5045321;28;8875;-74
2023/03/09 02:07:25;;;;;;;;;3.20;3.20;;;;;12.76;34.64;98164.31;5044949;28;8841;-74
2023/03/09 02:09:57;;;;;;;;;4.60;3.00;;;;;12.74;34.68;98166.19;5046586;28;8856;-74
2023/03/09 02:12:27;;;;;;;;;4.60;4.60;;;;;12.64;34.50;98162.34;5046432;28;8853;-73
2023/03/09 02:14:56;;;;;;;;;4.00;3.40;;;;;12.47;34.97;98165.84;5060241;28;8857;-74
2023/03/09 02:17:25;;;;;;;;;4.20;4.20;;;;;12.43;34.82;98162.50;5061793;28;8841;-74
2023/03/09 02:20:07;;;;;;;;;3.60;3.00;;;;;12.37;35.54;98162.78;5046257;28;8869;-76
2023/03/09 02:22:38;;;;;;;;;2.00;2.00;;;;;12.30;35.36;98158.78;5061261;28;8892;-76
2023/03/09 02:25:16;;;;;;;;;4.80;4.60;;;;;12.59;35.30;98151.16;5030237;28;8930;-74
2023/03/09 02:27:47;;;;;;;;;4.80;4.20;;;;;12.56;35.20;98146.03;4968094;28;8862;-75
2023/03/09 02:30:15;;;;;;;;;4.00;3.00;;;;;12.59;35.27;98143.25;5046001;28;8856;-74
2023/03/09 02:32:44;;;;;;;;;2.40;2.40;;;;;12.54;35.21;98147.00;5039043;28;8847;-73
2023/03/09 02:35:14;;;;;;;;;2.00;2.00;;;;;12.65;34.87;98156.13;5026554;28;8939;-74
2023/03/09 02:37:47;;;;;;;;;2.60;2.20;;;;;12.60;35.26;98156.38;5022782;28;8880;-75
2023/03/09 02:40:29;;;;;;;;;2.20;2.20;;;;;12.53;35.27;98165.50;5043308;28;8882;-74
2023/03/09 02:43:04;;;;;;;;;2.00;2.00;;;;;12.43;35.48;98157.22;5026164;28;8851;-73
2023/03/09 02:45:34;;;;;;;;;3.40;3.40;;;;;12.17;35.85;98155.91;5026373;28;8844;-74
2023/03/09 02:48:05;;;;;;;;;2.00;2.00;;;;;12.45;35.31;98152.72;5025320;28;8839;-74
2023/03/09 02:50:35;;;;;;;;;3.00;3.00;;;;;12.36;35.75;98154.97;5022590;28;8913;-73
2023/03/09 02:53:04;;;;;;;;;4.00;4.00;;;;;12.34;35.55;98142.72;5006608;28;8870;-75
2023/03/09 02:55:34;;;;;;;;;3.00;3.00;;;;;12.34;36.01;98145.34;4990358;28;8888;-74
2023/03/09 02:58:08;;;;;;;;;3.00;3.00;;;;;12.26;36.12;98144.91;5006268;28;8866;-74
2023/03/09 03:00:37;;;;;;;;;4.00;4.00;;;;;12.28;36.13;98139.56;4990113;28;8870;-74
2023/03/09 03:03:06;;;;;;;;;3.40;3.40;;;;;12.01;36.69;98149.69;4998556;28;8862;-73
2023/03/09 03:05:34;;;;;;;;;3.00;3.00;;;;;12.14;36.24;98137.59;4967093;28;8900;-75
2023/03/09 03:08:03;;;;;;;;;3.20;3.20;;;;;12.36;36.15;98131.28;4977456;28;8862;-74
2023/03/09 03:10:32;;;;;;;;;3.20;2.40;;;;;12.30;36.25;98137.69;4974606;28;8890;-74
2023/03/09 03:13:02;;;;;;;;;1.40;1.40;;;;;12.06;36.41;98140.63;4999925;28;8856;-75
2023/03/09 03:15:32;;;;;;;;;2.80;2.80;;;;;12.22;36.35;98139.84;4967145;28;8893;-76
2023/03/09 03:18:00;;;;;;;;;4.60;4.60;;;;;12.20;36.20;98139.94;4983668;28;8856;-75
2023/03/09 03:20:29;;;;;;;;;3.00;3.00;;;;;12.38;36.17;98134.69;4982727;28;8868;-74
2023/03/09 03:23:00;;;;;;;;;1.80;1.80;;;;;12.56;35.67;98135.50;5019386;28;8924;-75
2023/03/09 03:25:37;;;;;;;;;2.60;2.60;;;;;12.62;35.46;98141.31;5004110;28;8871;-75
2023/03/09 03:28:07;;;;;;;;;2.40;2.40;;;;;12.67;35.44;98139.28;4990058;28;8922;-74
2023/03/09 03:30:38;;;;;;;;;4.00;4.00;;;;;12.68;35.50;98135.72;5023071;28;8870;-73
2023/03/09 03:33:07;;;;;;;;;3.40;3.40;;;;;12.43;35.95;98137.91;4990090;28;8870;-74
2023/03/09 03:35:37;;;;;;;;;3.20;2.00;;;;;12.56;36.16;98133.75;5006290;28;8976;-74
2023/03/09 03:38:06;;;;;;;;;4.00;3.20;;;;;12.46;35.92;98133.34;5006830;28;8874;-73
2023/03/09 03:40:34;;;;;;;;;3.20;3.20;;;;;12.53;35.91;98128.63;5059833;28;8863;-74
2023/03/09 03:43:06;;;;;;;;;3.00;3.00;;;;;12.70;36.01;98130.38;5060507;28;8860;-73
2023/03/09 03:45:37;;;;;;;;;2.00;2.00;;;;;12.65;35.78;98125.31;5044120;28;8860;-73
2023/03/09 03:48:07;;;;;;;;;2.00;2.00;;;;;12.50;36.08;98129.63;5027877;28;8878;-74
2023/03/09 03:50:36;;;;;;;;;3.40;2.80;;;;;12.49;36.20;98134.97;5009710;28;8866;-75
2023/03/09 03:53:05;;;;;;;;;5.00;3.40;;;;;12.54;36.10;98123.28;4959031;28;8892;-74
2023/03/09 03:55:34;;;;;;;;;4.00;3.80;;;;;12.43;36.17;98128.25;5059756;28;8925;-75
2023/03/09 03:58:04;;;;;;;;;2.00;1.80;;;;;12.50;36.40;98123.50;5010638;28;8854;-75
2023/03/09 04:00:35;;;;;;;;;2.80;2.80;;;;;12.46;36.46;98119.31;4994715;28;9612;-75
2023/03/09 04:03:10;;;;;;;;;2.60;2.60;;;;;12.60;36.48;98126.50;5041569;28;8871;-75
2023/03/09 04:05:42;;;;;;;;;3.00;3.00;;;;;12.43;36.82;98130.00;5010482;28;8998;-73
2023/03/09 04:08:12;;;;;;;;;3.00;3.00;;;;;12.51;36.43;98123.41;5026957;28;8855;-74
2023/03/09 04:10:42;;;;;;;;;3.40;2.60;;;;;12.43;36.85;98111.56;5043423;28;8836;-72
2023/03/09 04:13:14;;;;;;;;;3.00;3.00;;;;;12.38;37.01;98111.81;5041773;28;8874;-75
2023/03/09 04:15:45;;;;;;;;;3.00;2.20;;;;;12.33;36.82;98114.69;5043688;28;9037;-76
2023/03/09 04:18:16;;;;;;;;;2.60;2.60;;;;;12.42;36.78;98117.78;4996338;28;9573;-72
2023/03/09 04:20:45;;;;;;;;;2.00;2.00;;;;;12.57;36.61;98111.69;5026453;28;9696;-75
2023/03/09 04:23:15;;;;;;;;;2.80;2.80;;;;;12.34;37.01;98105.84;5010028;28;9604;-76
2023/03/09 04:25:55;;;;;;;;;5.80;5.20;;;;;12.53;36.80;98102.25;5057880;28;8960;-73
2023/03/09 04:28:26;;;;;;;;;4.00;4.00;;;;;12.46;36.72;98104.34;5064790;28;8884;-74
2023/03/09 04:30:56;;;;;;;;;5.80;5.60;;;;;12.69;36.33;98104.94;5062082;28;8877;-73
2023/03/09 04:33:29;;;;;;;;;5.20;4.60;;;;;12.35;37.18;98106.69;5079522;28;8873;-74
2023/03/09 04:35:58;;;;;;;;;3.60;3.60;;;;;12.40;37.33;98117.84;5029752;28;8868;-75
2023/03/09 04:38:33;;;;;;;;;3.00;3.00;;;;;12.45;36.91;98101.81;5079118;28;8863;-75
2023/03/09 04:41:02;;;;;;;;;4.00;4.00;;;;;12.36;37.07;98105.75;5012677;28;8919;-74
2023/03/09 04:43:31;;;;;;;;;4.20;4.20;;;;;12.44;36.83;98108.84;5062420;28;9018;-74
2023/03/09 04:46:00;;;;;;;;;5.00;4.00;;;;;12.54;36.53;98102.19;5063607;28;8870;-74
2023/03/09 04:48:33;;;;;;;;;4.00;4.00;;;;;12.39;37.25;98108.25;5048317;28;8882;-73
2023/03/09 04:51:02;;;;;;;;;11.00;9.40;;;;;12.58;36.75;98104.63;5045052;28;9623;-73
2023/03/09 04:53:32;;;;;;;;;4.40;4.40;;;;;12.17;37.60;98110.28;5031932;28;9594;-73
2023/03/09 04:56:01;;;;;;;;;3.80;3.40;;;;;12.27;37.48;98108.88;5031947;28;8847;-74
2023/03/09 04:58:36;;;;;;;;;4.80;4.20;;;;;12.18;37.53;98107.53;5034175;28;8862;-73
2023/03/09 05:01:05;;;;;;;;;4.00;4.00;;;;;12.16;37.71;98109.41;4998252;28;8855;-74
2023/03/09 05:03:36;;;;;;;;;5.80;5.00;;;;;12.40;37.25;98106.47;5030975;28;8928;-74
2023/03/09 05:06:08;;;;;;;;;5.00;5.00;;;;;12.43;37.43;98106.28;5030756;28;9619;-74
2023/03/09 05:08:37;;;;;;;;;5.40;4.60;;;;;12.51;37.22;98110.22;5047945;28;8892;-72
2023/03/09 05:11:08;;;;;;;;;4.00;4.00;;;;;12.57;36.99;98116.13;5063878;28;8852;-73
2023/03/09 05:13:38;;;;;;;;;3.80;3.80;;;;;12.24;37.90;98114.28;5031200;28;8864;-74
2023/03/09 05:16:11;;;;;;;;;4.00;4.00;;;;;12.60;37.26;98111.56;5027811;28;8929;-74
2023/03/09 05:18:48;;;;;;;;;6.00;6.00;;;;;12.74;36.73;98116.94;5062652;28;8868;-74
2023/03/09 05:21:19;;;;;;;;;9.20;8.60;;;;;12.58;37.56;98118.69;5060779;28;8857;-76
2023/03/09 05:23:49;;;;;;;;;9.60;9.00;;;;;12.80;36.80;98107.00;5046759;28;8915;-74
2023/03/09 05:26:19;;;;;;;;;4.80;4.00;;;;;12.57;37.31;98116.97;5062223;28;8923;-74
2023/03/09 05:28:51;;;;;;;;;5.20;4.00;;;;;12.64;37.15;98112.25;5062000;28;8833;-72
2023/03/09 05:31:21;;;;;;;;;5.80;5.00;;;;;12.49;37.30;98103.34;5029350;28;8893;-74
2023/03/09 05:33:54;;;;;;;;;6.80;6.60;;;;;12.46;37.42;98109.63;5043079;28;8857;-73
2023/03/09 05:36:25;;;;;;;;;5.00;5.00;;;;;12.63;37.29;98110.53;5054229;28;8852;-74
2023/03/09 05:38:57;;;;;;;;;6.80;6.80;;;;;12.56;37.59;98102.09;5046968;28;8857;-75
2023/03/09 05:41:26;;;;;;;;;5.20;5.20;;;;;12.61;37.52;98099.22;5058600;28;9009;-75
2023/03/09 05:44:00;;;;;;;;;11.20;9.40;;;;;12.48;37.90;98102.47;5026537;28;8874;-74
2023/03/09 05:46:30;;;;;;;;;6.20;5.60;;;;;12.63;37.48;98106.09;5026069;28;9617;-74
2023/03/09 05:49:00;;;;;;;;;6.40;6.40;;;;;12.45;37.72;98110.56;5042873;28;8984;-74
2023/03/09 05:51:29;;;;;;;;;8.20;7.20;;;;;12.89;37.00;98111.81;5031970;28;8853;-75
2023/03/09 05:53:59;;;;;;;;;6.60;6.40;;;;;12.80;37.13;98118.41;5045522;28;8910;-75
2023/03/09 05:56:29;;;;;;;;;8.20;6.60;;;;;12.73;37.49;98111.72;5046596;28;8877;-74
2023/03/09 05:59:02;;;;;;;;;6.40;6.00;;;;;12.67;37.35;98119.97;5062637;28;8864;-74
2023/03/09 06:01:32;;;;;;;;;8.80;6.20;;;;;12.83;37.17;98112.13;5050533;28;8864;-75
2023/03/09 06:04:13;;;;;;;;;10.40;8.60;;;;;12.70;37.56;98115.41;5014377;28;8997;-74
2023/03/09 06:06:45;;;;;;;;;6.20;5.40;;;;;12.84;37.27;98119.97;5079639;28;8997;-75
2023/03/09 06:09:15;;;;;;;;;7.00;5.60;;;;;12.82;37.38;98119.16;5021475;28;8852;-76
2023/03/09 06:11:44;;;;;;;;;10.00;8.80;;;;;12.64;37.56;98121.00;5045133;28;8845;-76
2023/03/09 06:14:14;;;;;;;;;10.60;7.20;;;;;12.62;37.96;98120.22;5062698;28;9595;-74
2023/03/09 06:16:44;;;;;;;;;6.20;6.00;;;;;12.71;37.60;98122.38;5062638;28;8861;-76
2023/03/09 06:19:15;;;;;;;;;5.40;5.40;;;;;12.59;37.77;98119.53;5045895;28;8833;-75
2023/03/09 06:21:44;;;;;;;;;7.80;7.80;;;;;12.59;38.17;98122.16;5079244;28;8880;-77
2023/03/09 06:24:14;;;;;;;;;13.20;13.20;;;;;12.70;38.16;98130.38;5028724;28;8987;-75
2023/03/09 06:26:43;;;;;;;;;7.40;7.40;;;;;12.68;37.85;98134.88;5038890;28;9667;-76
2023/03/09 06:29:15;;;;;;;;;11.80;11.80;;;;;13.08;37.31;98127.50;5058963;28;9725;-75
2023/03/09 06:31:47;;;;;;;;;11.00;10.00;;;;;12.85;37.82;98131.38;5049403;28;8881;-74
2023/03/09 06:34:17;;;;;;;;;12.20;11.20;;;;;12.87;37.67;98127.72;5062485;28;8875;-76
2023/03/09 06:36:47;;;;;;;;;8.80;6.20;;;;;13.05;37.31;98128.53;5050491;28;8869;-78
2023/03/09 06:39:15;;;;;;;;;6.60;6.00;;;;;13.08;37.36;98131.00;5062357;28;8876;-76
2023/03/09 06:41:44;;;;;;;;;9.40;7.00;;;;;13.10;37.53;98126.47;5061218;28;9677;-80
2023/03/09 06:44:27;;;;;;;;;9.60;6.80;;;;;13.34;36.92;98133.16;5028349;28;8940;-78
2023/03/09 06:46:56;;;;;;;;;7.60;7.60;;;;;13.32;36.75;98125.34;5028656;28;9034;-79
2023/03/09 06:49:29;;;;;;;;;6.60;5.40;;;;;13.38;37.09;98119.72;4996926;28;8858;-78
2023/03/09 06:52:01;;;;;;;;;8.00;8.00;;;;;13.53;36.79;98123.28;5045793;28;8870;-79
2023/03/09 06:54:30;;;;;;;;;5.00;5.00;;;;;13.36;36.97;98121.59;5011955;28;8834;-77
2023/03/09 06:57:08;;;;;;;;;8.00;8.00;;;;;13.51;36.55;98125.16;5023484;28;8867;-78
2023/03/09 06:59:39;;;;;;;;;6.20;6.20;;;;;13.36;36.86;98132.13;5029210;28;8866;-79
2023/03/09 07:02:11;;;;;;;;;5.00;5.00;;;;;13.48;36.75;98122.69;5015460;28;8862;-75
2023/03/09 07:04:42;;;;;;;;;6.20;5.20;;;;;13.55;36.84;98120.56;5015583;28;8972;-77
2023/03/09 07:07:12;;;;;;;;;6.00;5.20;;;;;13.50;36.72;98119.00;5031800;28;8964;-78
2023/03/09 07:09:41;;;;;;;;;9.80;7.60;;;;;13.72;36.59;98119.63;5032090;28;8850;-77
2023/03/09 07:12:10;;;;;;;;;5.00;5.00;;;;;13.74;36.24;98121.22;5031978;28;9616;-78
2023/03/09 07:14:38;;;;;;;;;5.40;5.40;;;;;13.94;36.04;98111.31;5048442;28;9300;-77
2023/03/09 07:17:13;;;;;;;;;5.80;5.40;;;;;14.14;35.58;98118.09;5008769;28;8847;-78
2023/03/09 07:19:44;;;;;;;;;5.20;5.20;;;;;13.90;36.04;98115.94;5020623;28;8856;-76
2023/03/09 07:22:13;;;;;;;;;5.40;4.00;;;;;13.91;36.12;98108.88;4977050;28;8878;-77
2023/03/09 07:24:42;;;;;;;;;8.40;6.40;;;;;14.09;35.66;98113.94;5028811;28;8840;-80
2023/03/09 07:27:11;;;;;;;;;6.40;6.00;;;;;14.32;35.55;98116.16;5012154;28;8844;-81
2023/03/09 07:29:40;;;;;;;;;6.80;6.80;;;;;14.29;35.46;98120.69;4980402;28;8853;-81
2023/03/09 07:32:09;;;;;;;;;6.80;6.40;;;;;14.48;35.09;98107.22;5031835;28;9152;-80
2023/03/09 07:34:39;;;;;;;;;6.80;5.40;;;;;14.42;35.18;98107.59;5048523;28;9985;-81
2023/03/09 07:37:09;;;;;;;;;12.40;11.60;;;;;14.56;35.23;98104.09;5032270;28;8842;-81
2023/03/09 07:39:38;;;;;;;;;6.80;6.40;;;;;14.63;34.80;98101.97;5048510;28;8854;-78
2023/03/09 07:42:07;;;;;;;;;6.40;6.40;;;;;14.48;35.25;98109.88;5032153;28;9604;-82
2023/03/09 07:44:51;;;;;;;;;7.20;6.20;;;;;14.52;35.26;98105.25;5018140;28;8872;-81
2023/03/09 07:47:20;;;;;;;;;8.00;6.20;;;;;14.57;35.25;98105.81;5030900;28;8858;-80
2023/03/09 07:49:50;;;;;;;;;7.80;7.80;;;;;14.63;35.05;98102.81;5072735;28;8883;-80
2023/03/09 07:52:20;;;;;;;;;8.00;7.80;;;;;14.60;34.92;98104.78;5079514;28;9006;-79
2023/03/09 07:54:51;;;;;;;;;4.00;4.00;;;;;14.53;35.10;98112.25;5068491;28;8863;-81
2023/03/09 07:57:19;;;;;;;;;8.60;7.80;;;;;14.61;35.09;98101.19;5068585;28;8996;-79
2023/03/09 07:59:48;;;;;;;;;9.00;8.40;;;;;14.89;34.69;98099.56;5068602;28;8995;-81
2023/03/09 08:02:17;;;;;;;;;6.20;6.20;;;;;14.70;35.10;98094.47;5068322;28;8874;-80
2023/03/09 08:04:46;;;;;;;;;7.40;7.40;;;;;14.67;34.93;98095.53;5066312;28;9007;-79
2023/03/09 08:07:16;;;;;;;;;4.00;3.40;;;;;14.82;34.61;98097.25;5050982;28;8865;-80
2023/03/09 08:09:46;;;;;;;;;7.00;5.80;;;;;15.00;34.58;98087.34;5051048;28;8852;-80
2023/03/09 08:12:15;;;;;;;;;6.40;6.00;;;;;15.09;34.35;98088.56;5082965;28;8973;-79
2023/03/09 08:14:44;;;;;;;;;4.60;4.60;;;;;15.04;34.11;98090.66;5049114;28;8853;-79
2023/03/09 08:17:13;;;;;;;;;6.40;6.00;;;;;15.21;34.04;98086.94;5049953;28;8868;-81
2023/03/09 08:19:42;;;;;;;;;3.80;3.80;;;;;15.16;33.96;98074.00;5066346;28;8994;-81
2023/03/09 08:22:12;;;;;;;;;7.00;6.20;;;;;15.33;33.78;98086.16;5050710;28;8853;-79
2023/03/09 08:24:41;;;;;;;;;7.80;6.00;;;;;15.54;33.38;98080.44;5048871;28;8860;-79
2023/03/09 08:27:11;;;;;;;;;4.80;4.80;;;;;15.54;33.45;98073.31;5065952;28;8884;-79
2023/03/09 08:29:40;;;;;;;;;7.00;5.60;;;;;15.67;33.56;98091.13;5032520;28;8988;-80
2023/03/09 08:32:10;;;;;;;;;8.60;7.00;;;;;15.60;33.52;98091.53;5049279;28;9729;-79
2023/03/09 08:34:39;;;;;;;;;5.20;5.00;;;;;15.81;33.58;98083.97;5050854;28;8879;-81
2023/03/09 08:37:08;;;;;;;;;6.60;5.80;;;;;15.76;33.40;98086.06;5049310;28;9628;-80
2023/03/09 08:39:37;;;;;;;;;7.80;6.60;;;;;15.96;33.18;98091.81;5048975;28;8845;-78
2023/03/09 08:42:06;;;;;;;;;7.40;6.40;;;;;16.15;32.83;98091.44;5048716;28;9575;-79
2023/03/09 08:44:36;;;;;;;;;9.60;8.00;;;;;16.16;32.60;98078.09;5047665;28;8879;-80
2023/03/09 08:47:05;;;;;;;;;5.80;4.80;;;;;16.50;32.48;98072.34;5050201;28;8869;-81
2023/03/09 08:49:34;;;;;;;;;6.00;6.00;;;;;16.57;32.04;98076.28;5050009;28;8852;-79
2023/03/09 08:52:03;;;;;;;;;7.60;7.20;;;;;16.52;32.33;98073.06;5032708;28;8875;-78
2023/03/09 08:54:33;;;;;;;;;7.80;7.00;;;;;16.51;32.28;98077.53;5066424;28;8884;-80
2023/03/09 08:57:02;;;;;;;;;9.40;7.40;;;;;16.69;32.01;98069.25;5048375;28;8849;-78
2023/03/09 08:59:31;;;;;;;;;5.60;5.60;;;;;16.53;31.99;98058.84;5050229;28;8856;-80
2023/03/09 09:02:02;;;;;;;;;4.60;4.60;;;;;16.75;31.73;98071.47;5015215;28;9536;-79
2023/03/09 09:04:33;;;;;;;;;6.40;6.00;;;;;16.92;31.49;98067.63;5064288;28;9656;-81
2023/03/09 09:07:02;;;;;;;;;5.40;5.40;;;;;17.43;31.20;98056.06;5049124;28;8922;-79
2023/03/09 09:09:30;;;;;;;;;8.20;8.20;;;;;17.58;30.70;98055.75;5047059;28;8900;-80
2023/03/09 09:11:59;;;;;;;;;5.00;5.00;;;;;17.27;30.52;98059.84;5047642;28;8869;-81
2023/03/09 09:14:28;;;;;;;;;3.60;3.60;;;;;17.69;30.25;98060.28;5033840;28;8850;-78
2023/03/09 09:16:57;;;;;;;;;4.80;4.00;;;;;17.31;30.70;98056.00;5050503;28;8968;-80
2023/03/09 09:19:28;;;;;;;;;5.40;5.40;;;;;17.63;30.08;98073.16;5049057;28;8968;-77
2023/03/09 09:21:59;;;;;;;;;8.60;7.40;;;;;18.00;30.06;98071.28;5019831;28;8935;-79
2023/03/09 09:24:32;;;;;;;;;5.80;5.00;;;;;18.17;29.89;98072.69;5004732;28;8838;-79
2023/03/09 09:27:01;;;;;;;;;4.80;4.80;;;;;18.05;29.76;98068.31;5014870;28;8884;-79
2023/03/09 09:29:30;;;;;;;;;7.00;6.80;;;;;18.36;29.59;98072.13;5028480;28;8840;-80
2023/03/09 09:31:58;;;;;;;;;9.80;6.20;;;;;18.44;29.34;98059.13;5048207;28;8860;-80
2023/03/09 09:34:32;;;;;;;;;3.60;3.00;;;;;18.23;29.20;98058.09;5015479;28;8828;-79
2023/03/09 09:37:01;;;;;;;;;4.00;4.00;;;;;18.16;29.08;98063.03;5033680;28;8931;-78
2023/03/09 09:39:31;;;;;;;;;7.00;6.20;;;;;18.44;29.01;98071.53;5023209;28;9647;-79
2023/03/09 09:42:04;;;;;;;;;7.40;6.80;;;;;18.30;29.28;98054.84;5031736;28;8860;-80
2023/03/09 09:44:38;;;;;;;;;4.00;3.80;;;;;18.72;29.08;98057.81;5050087;28;8977;-80
2023/03/09 09:47:14;;;;;;;;;6.60;6.60;;;;;19.15;28.42;98050.06;5049667;28;8864;-79
2023/03/09 09:49:47;;;;;;;;;7.20;5.00;;;;;19.32;27.85;98053.06;5048016;28;8875;-80
2023/03/09 09:52:26;;;;;;;;;9.00;8.00;;;;;19.41;28.03;98048.81;5049030;28;8889;-79
2023/03/09 09:55:01;;;;;;;;;6.80;6.80;;;;;19.38;27.86;98050.88;5049630;28;8821;-78
2023/03/09 09:57:39;;;;;;;;;7.60;7.60;;;;;19.45;27.94;98047.56;5049249;28;8848;-80
2023/03/09 10:00:15;;;;;;;;;6.20;6.20;;;;;19.37;27.72;98051.84;5049155;28;8852;-81
2023/03/09 10:03:01;;;;;;;;;8.80;7.80;;;;;19.74;27.40;98067.50;5039470;28;8866;-80
2023/03/09 10:05:40;;;;;;;;;7.00;7.00;;;;;19.68;27.74;98059.03;5006514;28;8971;-80
2023/03/09 10:08:31;;;;;;;;;12.40;11.40;;;;;19.66;27.21;98060.16;5006883;28;8981;-79
2023/03/09 10:11:11;;;;;;;;;9.60;9.00;;;;;19.84;27.13;98063.09;5006215;28;8867;-80
2023/03/09 10:13:43;;;;;;;;;11.80;9.60;;;;;19.86;26.62;98059.34;5006422;28;8832;-81
2023/03/09 10:16:18;;;;;;;;;6.60;6.60;;;;;19.85;26.98;98068.31;5006532;28;8906;-81
2023/03/09 10:18:53;;;;;;;;;8.20;7.20;;;;;19.41;27.46;98072.78;5006438;28;9676;-82
2023/03/09 10:21:29;;;;;;;;;5.60;5.60;;;;;19.74;27.08;98071.00;5005863;28;9641;-82
2023/03/09 10:24:06;;;;;;;;;5.00;5.00;;;;;19.90;27.16;98063.44;5022857;28;8836;-79
2023/03/09 10:26:43;;;;;;;;;7.80;5.60;;;;;20.14;26.71;98059.72;5006424;28;8941;-80
2023/03/09 10:29:20;;;;;;;;;6.20;4.80;;;;;20.27;26.75;98067.53;5005655;28;8974;-79
2023/03/09 10:31:56;;;;;;;;;5.40;4.40;;;;;20.40;26.35;98070.00;5006382;28;9459;-80
2023/03/09 10:34:27;;;;;;;;;5.00;5.00;;;;;20.45;26.37;98062.47;5006351;28;8847;-80
2023/03/09 10:37:04;;;;;;;;;7.00;6.00;;;;;20.54;26.35;98063.47;5009199;28;10174;-80
2023/03/09 10:39:39;;;;;;;;;8.80;8.20;;;;;20.66;26.21;98067.78;5012504;28;8872;-79
2023/03/09 10:42:18;;;;;;;;;9.40;7.80;;;;;20.09;26.63;98056.56;5032899;28;8853;-79
2023/03/09 10:44:57;;;;;;;;;10.00;9.00;;;;;20.37;26.61;98056.91;5030965;28;8876;-80
2023/03/09 10:47:26;;;;;;;;;8.00;8.00;;;;;20.41;26.70;98053.03;4998860;28;8873;-79
2023/03/09 10:50:10;;;;;;;;;6.40;6.40;;;;;19.93;26.56;98054.34;5037812;28;9583;-78
2023/03/09 10:52:53;;;;;;;;;7.40;7.00;;;;;20.34;27.07;98060.69;5050793;28;8856;-80
2023/03/09 10:55:33;;;;;;;;;8.00;7.80;;;;;20.66;26.40;98054.41;5033697;28;8884;-80
2023/03/09 10:58:14;;;;;;;;;6.00;6.00;;;;;20.37;26.09;98047.09;5051143;28;9583;-79
2023/03/09 11:00:56;;;;;;;;;6.40;6.40;;;;;20.53;26.33;98049.28;5052039;28;8883;-80
2023/03/09 11:03:32;;;;;;;;;7.20;6.60;;;;;20.30;26.23;98048.59;5052826;28;8841;-81
2023/03/09 11:06:28;;;;;;;;;7.00;5.20;;;;;20.34;26.59;98043.84;5067750;28;8845;-79
2023/03/09 11:09:05;;;;;;;;;8.40;7.80;;;;;20.25;26.53;98040.13;5054168;28;8859;-80
2023/03/09 11:11:46;;;;;;;;;8.40;7.00;;;;;20.24;26.75;98041.97;5054132;28;8879;-79
2023/03/09 11:14:26;;;;;;;;;6.60;6.60;;;;;20.54;26.53;98044.78;5054008;28;8898;-79
2023/03/09 11:16:57;;;;;;;;;10.20;8.20;;;;;19.89;27.03;98036.91;5070184;28;8880;-81
2023/03/09 11:19:27;;;;;;;;;7.80;6.40;;;;;20.23;26.81;98034.91;5036073;28;8859;-83
2023/03/09 11:22:03;;;;;;;;;7.60;7.60;;;;;20.25;26.65;98040.13;5038497;28;8836;-78
2023/03/09 11:24:38;;;;;;;;;5.80;4.60;;;;;20.50;26.45;98030.88;4996696;28;8906;-81
2023/03/09 11:27:12;;;;;;;;;6.40;6.40;;;;;20.35;26.22;98026.84;5054853;28;8973;-80
2023/03/09 11:29:52;;;;;;;;;11.00;7.40;;;;;20.43;26.58;98027.88;5009775;28;8854;-79
2023/03/09 11:32:21;;;;;;;;;6.80;6.80;;;;;20.54;26.47;98032.31;5009934;28;9031;-79
2023/03/09 11:34:52;;;;;;;;;9.60;8.60;;;;;20.59;26.01;98037.25;4993013;28;8851;-79
2023/03/09 11:37:29;;;;;;;;;10.20;8.80;;;;;20.24;26.77;98044.63;4993560;28;8981;-80
2023/03/09 11:40:03;;;;;;;;;8.60;8.60;;;;;19.86;27.38;98038.00;4992855;28;8881;-79
2023/03/09 11:42:37;;;;;;;;;8.00;5.60;;;;;20.18;26.61;98042.47;4992900;28;8846;-81
2023/03/09 11:45:16;;;;;;;;;7.80;7.40;;;;;20.28;27.17;98040.72;4976713;28;9092;-79
2023/03/09 11:47:48;;;;;;;;;6.80;6.80;;;;;20.49;26.92;98031.84;5009218;28;8885;-80
2023/03/09 11:50:20;;;;;;;;;8.40;6.80;;;;;19.99;27.41;98034.31;5009299;28;8854;-79
2023/03/09 11:52:53;;;;;;;;;6.20;6.20;;;;;20.34;27.02;98031.34;5025567;28;8882;-80
2023/03/09 11:55:29;;;;;;;;;7.00;7.00;;;;;20.42;26.69;98033.34;5008873;28;8877;-80
2023/03/09 11:58:01;;;;;;;;;9.00;8.40;;;;;20.56;27.09;98037.50;5009154;28;9004;-80
2023/03/09 12:00:32;;;;;;;;;8.60;7.60;;;;;20.59;27.36;98043.41;5026019;28;8972;-79
2023/03/09 12:03:06;;;;;;;;;8.40;8.40;;;;;20.72;27.48;98042.38;5051239;28;8860;-80